createdAt,value
2023-05-06T00:01:31.762Z,1.95
2023-05-06T00:04:20.364Z,1.98
2023-05-06T00:07:09.091Z,2.88
2023-05-06T00:09:57.625Z,2.15
2023-05-06T00:12:46.519Z,2.35
2023-05-06T00:15:36.606Z,2.35
2023-05-06T00:18:25.284Z,2.50
2023-05-06T00:21:14.062Z,2.13
2023-05-06T00:24:02.902Z,1.98
2023-05-06T00:26:51.739Z,2.75
2023-05-06T00:29:40.453Z,2.20
2023-05-06T00:32:30.575Z,1.73
2023-05-06T00:35:19.409Z,2.22
2023-05-06T00:38:09.995Z,2.38
2023-05-06T00:40:58.562Z,2.10
2023-05-06T00:43:47.237Z,1.95
2023-05-06T00:46:37.988Z,2.33
2023-05-06T00:49:28.219Z,2.17
2023-05-06T00:52:17.528Z,2.55
2023-05-06T00:55:06.793Z,1.98
2023-05-06T00:57:56.377Z,2.53
2023-05-06T01:00:45.091Z,2.40
2023-05-06T01:03:33.838Z,2.55
2023-05-06T01:06:31.448Z,2.70
2023-05-06T01:09:25.487Z,2.45
2023-05-06T01:12:18.850Z,2.15
2023-05-06T01:15:12.408Z,2.47
2023-05-06T01:18:03.170Z,2.50
2023-05-06T01:20:55.883Z,2.70
2023-05-06T01:23:57.637Z,2.50
2023-05-06T01:26:46.355Z,2.00
2023-05-06T01:29:38.120Z,2.08
2023-05-06T01:32:35.758Z,2.47
2023-05-06T01:35:32.487Z,2.22
2023-05-06T01:38:31.302Z,2.60
2023-05-06T01:41:22.752Z,2.42
2023-05-06T01:44:13.321Z,2.45
2023-05-06T01:47:03.862Z,2.25
2023-05-06T01:49:52.668Z,2.30
2023-05-06T01:52:43.695Z,2.55
2023-05-06T01:55:32.377Z,2.45
2023-05-06T01:58:24.780Z,2.40
2023-05-06T02:01:13.479Z,2.83
2023-05-06T02:04:02.477Z,2.45
2023-05-06T02:06:52.491Z,2.17
2023-05-06T02:09:41.220Z,2.50
2023-05-06T02:12:29.794Z,2.13
2023-05-06T02:15:19.965Z,2.60
2023-05-06T02:18:08.583Z,2.45
2023-05-06T02:20:58.208Z,2.80
2023-05-06T02:23:46.812Z,1.98
2023-05-06T02:26:35.512Z,2.38
2023-05-06T02:29:25.353Z,2.53
2023-05-06T02:32:15.389Z,2.10
2023-05-06T02:35:06.560Z,2.28
2023-05-06T02:37:55.242Z,2.78
2023-05-06T02:40:43.829Z,2.47
2023-05-06T02:43:32.435Z,2.45
2023-05-06T02:46:21.094Z,2.50
2023-05-06T02:49:11.117Z,2.70
2023-05-06T02:51:59.684Z,2.58
2023-05-06T02:54:48.246Z,2.10
2023-05-06T02:57:36.882Z,2.58
2023-05-06T03:00:25.549Z,2.13
2023-05-06T03:03:14.122Z,1.95
2023-05-06T03:06:04.072Z,2.25
2023-05-06T03:08:52.968Z,2.33
2023-05-06T03:11:42.157Z,2.38
2023-05-06T03:14:31.676Z,2.33
2023-05-06T03:17:20.273Z,2.05
2023-05-06T03:20:10.676Z,2.00
2023-05-06T03:23:00.638Z,2.40
2023-05-06T03:25:49.483Z,2.50
2023-05-06T03:28:38.057Z,2.38
2023-05-06T03:31:26.961Z,1.83
2023-05-06T03:34:15.793Z,1.92
2023-05-06T03:37:04.420Z,2.20
2023-05-06T03:39:54.810Z,1.73
2023-05-06T03:42:43.408Z,2.08
2023-05-06T03:45:32.216Z,1.85
2023-05-06T03:48:20.737Z,1.80
2023-05-06T03:51:09.661Z,1.83
2023-05-06T03:53:58.302Z,2.55
2023-05-06T03:56:48.264Z,2.30
2023-05-06T03:59:36.864Z,2.20
2023-05-06T04:02:25.926Z,2.13
2023-05-06T04:05:14.653Z,2.35
2023-05-06T04:08:03.370Z,1.83
2023-05-06T04:10:52.070Z,2.38
2023-05-06T04:13:42.044Z,2.20
2023-05-06T04:16:30.655Z,2.30
2023-05-06T04:19:19.252Z,1.90
2023-05-06T04:22:07.782Z,2.05
2023-05-06T04:24:56.429Z,1.67
2023-05-06T04:27:45.019Z,2.08
2023-05-06T04:30:35.928Z,1.88
2023-05-06T04:33:25.562Z,2.78
2023-05-06T04:36:15.743Z,2.13
2023-05-06T04:39:06.552Z,2.10
2023-05-06T04:41:55.216Z,1.83
2023-05-06T04:44:44.600Z,1.73
2023-05-06T04:47:35.542Z,2.10
2023-05-06T04:50:24.366Z,1.95
2023-05-06T04:53:12.983Z,1.83
2023-05-06T04:56:02.876Z,1.90
2023-05-06T04:58:51.539Z,1.75
2023-05-06T05:01:40.256Z,2.38
2023-05-06T05:04:31.275Z,1.73
2023-05-06T05:07:19.869Z,2.20
2023-05-06T05:10:10.396Z,2.22
2023-05-06T05:12:59.415Z,1.67
2023-05-06T05:15:48.005Z,2.00
2023-05-06T05:18:36.781Z,1.70
2023-05-06T05:21:27.632Z,1.70
2023-05-06T05:24:16.312Z,2.00
2023-05-06T05:27:04.981Z,1.73
2023-05-06T05:29:53.652Z,1.90
2023-05-06T05:32:42.340Z,1.85
2023-05-06T05:35:30.894Z,1.90
2023-05-06T05:38:20.841Z,2.08
2023-05-06T05:41:09.423Z,1.55
2023-05-06T05:43:58.186Z,1.80
2023-05-06T05:46:46.915Z,1.83
2023-05-06T05:49:36.100Z,2.40
2023-05-06T05:52:24.685Z,2.30
2023-05-06T05:55:17.469Z,2.70
2023-05-06T05:58:07.795Z,2.60
2023-05-06T06:00:56.444Z,2.50
2023-05-06T06:03:45.829Z,2.20
2023-05-06T06:06:34.649Z,2.80
2023-05-06T06:09:23.244Z,2.47
2023-05-06T06:12:14.540Z,2.80
2023-05-06T06:15:03.450Z,2.67
2023-05-06T06:17:54.569Z,2.30
2023-05-06T06:20:43.497Z,2.80
2023-05-06T06:23:32.094Z,2.47
2023-05-06T06:26:21.323Z,2.60
2023-05-06T06:29:11.311Z,2.97
2023-05-06T06:32:00.880Z,3.10
2023-05-06T06:34:49.528Z,2.80
2023-05-06T06:37:38.078Z,2.70
2023-05-06T06:40:28.261Z,2.97
2023-05-06T06:43:18.243Z,2.78
2023-05-06T06:46:10.452Z,2.60
2023-05-06T06:48:59.108Z,2.78
2023-05-06T06:51:47.873Z,2.90
2023-05-06T06:54:39.077Z,2.15
2023-05-06T06:57:27.760Z,2.53
2023-05-06T07:00:17.077Z,2.72
2023-05-06T07:03:07.133Z,2.40
2023-05-06T07:05:56.024Z,2.25
2023-05-06T07:08:45.929Z,2.60
2023-05-06T07:11:34.919Z,2.50
2023-05-06T07:14:23.542Z,2.85
2023-05-06T07:17:14.293Z,2.53
2023-05-06T07:20:04.440Z,2.50
2023-05-06T07:22:53.275Z,2.63
2023-05-06T07:25:41.879Z,2.65
2023-05-06T07:28:30.567Z,2.30
2023-05-06T07:31:21.136Z,2.92
2023-05-06T07:34:09.882Z,3.05
2023-05-06T07:36:59.853Z,2.97
2023-05-06T07:39:48.663Z,3.00
2023-05-06T07:42:37.357Z,3.05
2023-05-06T07:45:27.368Z,3.13
2023-05-06T07:48:17.956Z,2.88
2023-05-06T07:51:08.033Z,3.08
2023-05-06T07:53:58.031Z,2.60
2023-05-06T07:56:46.704Z,2.70
2023-05-06T07:59:35.336Z,2.92
2023-05-06T08:02:26.286Z,3.15
2023-05-06T08:05:15.292Z,3.42
2023-05-06T08:08:03.971Z,3.80
2023-05-06T08:10:54.259Z,3.67
2023-05-06T08:13:42.857Z,4.20
2023-05-06T08:16:31.539Z,2.45
2023-05-06T08:19:20.272Z,2.75
2023-05-06T08:22:08.999Z,2.72
2023-05-06T08:24:58.134Z,2.72
2023-05-06T08:27:48.499Z,4.05
2023-05-06T08:30:37.574Z,5.68
2023-05-06T08:33:29.416Z,4.50
2023-05-06T08:36:18.059Z,4.32
2023-05-06T08:39:07.084Z,4.20
2023-05-06T08:41:57.868Z,3.78
2023-05-06T08:44:50.851Z,3.95
2023-05-06T08:47:39.781Z,4.22
2023-05-06T08:50:28.470Z,4.68
2023-05-06T08:53:17.327Z,4.97
2023-05-06T08:56:10.519Z,4.47
2023-05-06T08:58:59.900Z,4.47
2023-05-06T09:01:50.392Z,4.57
2023-05-06T09:04:39.663Z,4.18
2023-05-06T09:07:28.631Z,4.38
2023-05-06T09:10:19.148Z,5.50
2023-05-06T09:13:08.200Z,6.28
2023-05-06T09:15:56.894Z,6.13
2023-05-06T09:18:46.926Z,5.60
2023-05-06T09:21:36.817Z,5.32
2023-05-06T09:24:26.336Z,4.47
2023-05-06T09:27:15.378Z,4.00
2023-05-06T09:30:06.080Z,3.78
2023-05-06T09:32:55.103Z,6.20
2023-05-06T09:35:45.835Z,6.30
2023-05-06T09:38:34.495Z,6.38
2023-05-06T09:41:25.284Z,6.28
2023-05-06T09:44:14.140Z,6.57
2023-05-06T09:47:04.693Z,6.15
2023-05-06T09:49:57.588Z,5.80
2023-05-06T09:52:48.618Z,5.13
2023-05-06T09:55:38.912Z,5.72
2023-05-06T09:58:29.500Z,5.75
2023-05-06T10:01:32.543Z,5.40
2023-05-06T10:04:27.552Z,5.93
2023-05-06T10:07:19.657Z,5.20
2023-05-06T10:10:12.187Z,5.22
2023-05-06T10:13:00.979Z,4.88
2023-05-06T10:15:51.186Z,5.53
2023-05-06T10:18:42.304Z,5.68
2023-05-06T10:21:34.275Z,5.47
2023-05-06T10:24:31.344Z,5.32
2023-05-06T10:27:26.224Z,5.78
2023-05-06T10:30:17.014Z,4.75
2023-05-06T10:33:07.297Z,5.72
2023-05-06T10:36:00.805Z,5.03
2023-05-06T10:38:54.789Z,5.38
2023-05-06T10:41:43.592Z,4.90
2023-05-06T10:45:04.684Z,5.80
2023-05-06T10:48:15.642Z,4.97
2023-05-06T10:51:28.357Z,5.43
2023-05-06T10:54:26.158Z,5.43
2023-05-06T10:57:14.749Z,5.68
2023-05-06T11:00:05.252Z,5.88
2023-05-06T11:03:05.054Z,6.00
2023-05-06T11:05:54.357Z,5.45
2023-05-06T11:08:46.035Z,5.07
2023-05-06T11:11:52.555Z,5.35
2023-05-06T11:14:41.585Z,5.18
2023-05-06T11:17:33.296Z,5.32
2023-05-06T11:20:23.958Z,5.82
2023-05-06T11:23:12.618Z,5.07
2023-05-06T11:26:01.653Z,4.63
2023-05-06T11:28:52.708Z,4.93
2023-05-06T11:31:43.790Z,4.07
2023-05-06T11:34:35.476Z,4.65
2023-05-06T11:37:27.145Z,4.50
2023-05-06T11:40:17.430Z,4.28
2023-05-06T11:43:14.652Z,4.78
2023-05-06T11:46:04.054Z,4.35
2023-05-06T11:48:56.296Z,3.92
2023-05-06T11:51:46.718Z,4.22
2023-05-06T11:54:37.794Z,3.80
2023-05-06T11:57:26.654Z,4.05
2023-05-06T12:00:16.254Z,3.58
2023-05-06T12:03:05.060Z,4.25
2023-05-06T12:05:55.160Z,4.00
2023-05-06T12:08:45.685Z,4.00
2023-05-06T12:11:35.368Z,3.05
2023-05-06T12:14:24.444Z,3.53
2023-05-06T12:17:15.124Z,4.07
2023-05-06T12:20:04.018Z,3.72
2023-05-06T12:23:08.138Z,3.92
2023-05-06T12:26:05.216Z,4.15
2023-05-06T12:29:08.407Z,4.78
2023-05-06T12:32:10.529Z,4.38
2023-05-06T12:35:06.027Z,4.22
2023-05-06T12:37:55.315Z,4.15
2023-05-06T12:40:45.547Z,4.88
2023-05-06T12:43:35.673Z,3.85
2023-05-06T12:46:24.399Z,3.38
2023-05-06T12:49:13.573Z,4.43
2023-05-06T12:52:10.094Z,4.22
2023-05-06T12:55:01.615Z,5.65
2023-05-06T12:57:54.933Z,5.47
2023-05-06T13:00:47.345Z,5.63
2023-05-06T13:03:39.347Z,5.93
2023-05-06T13:06:28.020Z,5.47
2023-05-06T13:09:19.662Z,5.55
2023-05-06T13:12:11.273Z,5.82
2023-05-06T13:15:00.043Z,5.68
2023-05-06T13:17:52.970Z,5.10
2023-05-06T13:20:42.001Z,4.90
2023-05-06T13:23:31.454Z,6.05
2023-05-06T13:26:20.167Z,6.10
2023-05-06T13:29:09.003Z,6.07
2023-05-06T13:31:58.598Z,4.90
2023-05-06T13:34:51.858Z,6.15
2023-05-06T13:37:40.543Z,6.55
2023-05-06T13:40:29.078Z,6.72
2023-05-06T13:43:17.865Z,7.25
2023-05-06T13:46:06.598Z,6.13
2023-05-06T13:49:00.667Z,6.32
2023-05-06T13:51:50.970Z,7.30
2023-05-06T13:54:40.347Z,7.47
2023-05-06T13:57:29.429Z,7.00
2023-05-06T14:00:19.219Z,8.40
2023-05-06T14:03:11.457Z,8.75
2023-05-06T14:06:00.105Z,7.40
2023-05-06T14:08:50.865Z,7.28
2023-05-06T14:11:39.895Z,8.30
2023-05-06T14:14:30.757Z,8.45
2023-05-06T14:17:19.420Z,9.10
2023-05-06T14:20:10.158Z,8.75
2023-05-06T14:23:00.227Z,8.35
2023-05-06T14:25:50.393Z,9.43
2023-05-06T14:28:39.071Z,8.73
2023-05-06T14:31:29.494Z,9.70
2023-05-06T14:34:18.205Z,8.63
2023-05-06T14:37:08.028Z,7.70
2023-05-06T14:39:58.137Z,7.32
2023-05-06T14:42:48.444Z,8.05
2023-05-06T14:45:37.118Z,8.65
2023-05-06T14:48:26.084Z,8.75
2023-05-06T14:51:18.250Z,9.23
2023-05-06T14:54:06.977Z,9.40
2023-05-06T14:56:56.822Z,8.90
2023-05-06T14:59:58.619Z,9.52
2023-05-06T15:02:47.358Z,8.70
2023-05-06T15:05:39.872Z,9.32
2023-05-06T15:08:33.093Z,8.70
2023-05-06T15:11:24.364Z,9.15
2023-05-06T15:14:15.813Z,9.05
2023-05-06T15:17:08.202Z,9.27
2023-05-06T15:19:58.250Z,9.77
2023-05-06T15:22:47.128Z,10.30
2023-05-06T15:25:36.725Z,9.45
2023-05-06T15:28:26.875Z,9.20
2023-05-06T15:31:15.979Z,9.90
2023-05-06T15:34:07.265Z,10.60
2023-05-06T15:37:01.556Z,8.35
2023-05-06T15:39:51.808Z,9.55
2023-05-06T15:42:54.219Z,9.07
2023-05-06T15:45:43.180Z,9.18
2023-05-06T15:48:33.817Z,8.57
2023-05-06T15:51:29.027Z,7.95
2023-05-06T15:54:19.349Z,7.22
2023-05-06T15:57:07.928Z,7.68
2023-05-06T15:59:56.840Z,6.97
2023-05-06T16:02:51.355Z,6.68
2023-05-06T16:05:43.733Z,6.97
2023-05-06T16:08:34.990Z,6.82
2023-05-06T16:11:26.190Z,6.47
2023-05-06T16:14:14.963Z,7.00
2023-05-06T16:17:03.704Z,7.00
2023-05-06T16:19:52.364Z,6.55
2023-05-06T16:22:42.826Z,6.78
2023-05-06T16:25:33.548Z,7.63
2023-05-06T16:28:22.800Z,6.78
2023-05-06T16:31:11.955Z,7.07
2023-05-06T16:34:01.131Z,6.72
2023-05-06T16:36:51.568Z,7.82
2023-05-06T16:39:40.327Z,8.88
2023-05-06T16:42:30.783Z,11.20
2023-05-06T16:45:19.556Z,11.32
2023-05-06T16:48:08.659Z,11.07
2023-05-06T16:51:01.248Z,9.57
2023-05-06T16:53:50.542Z,9.48
2023-05-06T16:56:50.783Z,8.38
2023-05-06T16:59:42.734Z,7.85
2023-05-06T17:02:31.550Z,7.53
2023-05-06T17:05:21.995Z,7.65
2023-05-06T17:08:19.769Z,7.60
2023-05-06T17:11:09.922Z,6.85
2023-05-06T17:14:02.281Z,7.68
2023-05-06T17:16:55.566Z,6.60
2023-05-06T17:19:45.264Z,7.32
2023-05-06T17:22:33.877Z,6.60
2023-05-06T17:25:23.311Z,7.40
2023-05-06T17:28:12.198Z,7.78
2023-05-06T17:31:01.133Z,7.47
2023-05-06T17:33:51.811Z,8.68
2023-05-06T17:36:41.248Z,8.13
2023-05-06T17:39:34.595Z,7.03
2023-05-06T17:42:24.525Z,7.85
2023-05-06T17:45:17.524Z,7.53
2023-05-06T17:48:07.631Z,7.13
2023-05-06T17:51:02.466Z,7.07
2023-05-06T17:53:52.194Z,6.53
2023-05-06T17:56:44.037Z,6.57
2023-05-06T17:59:35.289Z,7.03
2023-05-06T18:02:24.025Z,6.47
2023-05-06T18:05:13.606Z,6.72
2023-05-06T18:08:09.993Z,6.07
2023-05-06T18:10:59.651Z,6.85
2023-05-06T18:13:52.243Z,6.35
2023-05-06T18:16:41.185Z,6.28
2023-05-06T18:19:30.067Z,6.78
2023-05-06T18:22:22.162Z,6.20
2023-05-06T18:25:12.870Z,6.40
2023-05-06T18:28:03.407Z,5.63
2023-05-06T18:30:54.414Z,5.28
2023-05-06T18:33:43.045Z,6.40
2023-05-06T18:36:31.977Z,6.40
2023-05-06T18:39:21.368Z,5.93
2023-05-06T18:42:11.599Z,5.35
2023-05-06T18:45:01.409Z,5.53
2023-05-06T18:47:51.141Z,5.35
2023-05-06T18:50:40.801Z,5.57
2023-05-06T18:53:32.224Z,5.30
2023-05-06T18:56:21.409Z,4.55
2023-05-06T18:59:12.141Z,5.53
2023-05-06T19:02:03.708Z,5.57
2023-05-06T19:04:52.916Z,4.90
2023-05-06T19:07:41.640Z,5.78
2023-05-06T19:10:31.146Z,4.68
2023-05-06T19:13:19.939Z,5.35
2023-05-06T19:16:10.809Z,5.20
2023-05-06T19:19:07.818Z,4.30
2023-05-06T19:21:59.113Z,5.38
2023-05-06T19:24:47.843Z,4.20
2023-05-06T19:27:36.599Z,5.65
2023-05-06T19:30:25.843Z,5.32
2023-05-06T19:33:17.266Z,4.85
2023-05-06T19:36:07.275Z,5.57
2023-05-06T19:38:56.122Z,4.40
2023-05-06T19:41:45.013Z,5.32
2023-05-06T19:44:33.658Z,5.78
2023-05-06T19:47:22.256Z,5.35
2023-05-06T19:50:15.031Z,5.20
2023-05-06T19:53:03.795Z,5.18
2023-05-06T19:55:52.684Z,5.20
2023-05-06T19:58:42.587Z,4.28
2023-05-06T20:01:31.175Z,4.63
2023-05-06T20:04:20.095Z,4.03
2023-05-06T20:07:10.993Z,3.60
2023-05-06T20:10:00.941Z,4.22
2023-05-06T20:12:57.229Z,4.55
2023-05-06T20:15:47.404Z,5.57
2023-05-06T20:18:37.271Z,4.78
2023-05-06T20:21:30.061Z,4.07
2023-05-06T20:24:19.994Z,3.90
2023-05-06T20:27:08.720Z,3.83
2023-05-06T20:29:57.334Z,4.05
2023-05-06T20:32:48.297Z,3.47
2023-05-06T20:35:41.521Z,3.10
2023-05-06T20:38:32.875Z,3.60
2023-05-06T20:41:22.847Z,3.75
2023-05-06T20:44:11.461Z,3.15
2023-05-06T20:47:04.114Z,2.65
2023-05-06T20:49:55.118Z,3.78
2023-05-06T20:52:49.342Z,3.22
2023-05-06T20:55:38.742Z,3.45
2023-05-06T20:58:29.457Z,2.70
2023-05-06T21:01:18.561Z,2.65
2023-05-06T21:04:07.486Z,2.88
2023-05-06T21:06:57.296Z,3.17
2023-05-06T21:09:47.193Z,2.55
2023-05-06T21:12:35.915Z,2.72
2023-05-06T21:15:27.036Z,2.40
2023-05-06T21:18:16.700Z,2.45
2023-05-06T21:21:05.882Z,2.60
2023-05-06T21:23:54.505Z,2.33
2023-05-06T21:26:43.226Z,2.45
2023-05-06T21:29:31.984Z,2.42
2023-05-06T21:32:22.263Z,2.72
2023-05-06T21:35:11.562Z,1.90
2023-05-06T21:38:00.346Z,1.88
2023-05-06T21:40:48.976Z,2.25
2023-05-06T21:43:37.881Z,2.63
2023-05-06T21:46:26.861Z,2.13
2023-05-06T21:49:16.920Z,2.53
2023-05-06T21:52:06.301Z,2.30
2023-05-06T21:54:56.248Z,1.83
2023-05-06T21:57:46.189Z,1.80
2023-05-06T22:00:37.444Z,1.88
2023-05-06T22:03:26.180Z,1.98
2023-05-06T22:06:16.624Z,2.03
2023-05-06T22:09:09.125Z,2.05
2023-05-06T22:11:57.820Z,2.30
2023-05-06T22:14:46.447Z,2.20
2023-05-06T22:17:36.539Z,1.95
2023-05-06T22:20:25.221Z,1.70
2023-05-06T22:23:15.318Z,1.90
2023-05-06T22:26:03.928Z,2.13
2023-05-06T22:28:53.650Z,1.55
2023-05-06T22:31:42.408Z,1.80
2023-05-06T22:34:31.052Z,2.50
2023-05-06T22:37:19.763Z,1.88
2023-05-06T22:40:11.237Z,1.98
2023-05-06T22:42:59.813Z,1.73
2023-05-06T22:45:51.270Z,1.63
2023-05-06T22:48:40.502Z,1.85
2023-05-06T22:51:29.318Z,1.90
2023-05-06T22:54:17.914Z,1.48
2023-05-06T22:57:07.918Z,2.53
2023-05-06T22:59:56.544Z,2.03
2023-05-06T23:02:45.251Z,2.28
2023-05-06T23:05:34.204Z,2.03
2023-05-06T23:08:25.241Z,2.50
2023-05-06T23:11:14.045Z,2.03
2023-05-06T23:14:04.028Z,2.03
2023-05-06T23:16:52.752Z,2.13
2023-05-06T23:19:41.375Z,2.10
2023-05-06T23:22:30.027Z,2.15
2023-05-06T23:25:20.958Z,2.42
2023-05-06T23:28:11.773Z,2.03
2023-05-06T23:31:01.904Z,2.60
2023-05-06T23:33:53.046Z,2.28
2023-05-06T23:36:41.697Z,2.35
2023-05-06T23:39:30.753Z,2.33
2023-05-06T23:42:19.361Z,3.22
2023-05-06T23:45:09.456Z,3.00
2023-05-06T23:47:59.803Z,2.83
2023-05-06T23:50:48.493Z,2.22
2023-05-06T23:53:37.251Z,3.45
2023-05-06T23:56:25.935Z,2.55
2023-05-06T23:59:14.529Z,2.50
